Mayville, North Dakota
Current Conditions -  °F | °C
As of 10:53 AM on Saturday 22 Nov 2014 (Local Time) from KGFK Reporting Station
Scattered Clouds Scattered Clouds  
Wind Chill: 34°   Ceiling: Unl
Heat Index: 34°   Visibility: 10mi
Dew Point: 27°   Wind: 3mph
Humidity: 75%   Direction: 200°SSW
Pressure: 29.56"   Gusts: NA
Location:  47.5°N, 97.32°W
Report Text: KGFK 221653Z 20003KT 10SM SCT200 01/M03 A2956 RMK AO2 SLP020 T00111028
Loading
Personal Weather Stations






























Interactive Weather Map New forecast layout! Learn more

10-Day Weather Forecast

Advertisements
Track Severe Weather on mobile